Terminal Aerodrome Forecast
Issued by NWS

Home | Current Version | Previous Version | Text Only | Print | Product List | Glossary Off
Versions: 1 2 3 4 5 6 7 8 9 10 11 12 13 14 15

000
FTUS45 KGGW 211126
TAFGDV
TAF
KGDV 211126Z 2112/2212 28010KT P6SM FEW210 WS020/31035KT
     FM211300 29018G26KT P6SM FEW170
     FM220100 33013KT P6SM FEW200
     FM220300 VRB05KT P6SM BKN100
     FM220700 29007KT P6SM SCT140=

USA.gov is the U.S. government's official web portal to all federal, state and local government web resources and services.